createdAt,value
2019-01-18T00:01:47.271Z,110.60
2019-01-18T00:04:13.198Z,108.80
2019-01-18T00:06:39.297Z,109.33
2019-01-18T00:09:05.478Z,108.70
2019-01-18T00:11:31.490Z,106.00
2019-01-18T00:13:57.456Z,112.23
2019-01-18T00:16:23.436Z,106.63
2019-01-18T00:18:49.551Z,107.30
2019-01-18T00:21:16.011Z,109.57
2019-01-18T00:23:41.977Z,114.47
2019-01-18T00:26:07.861Z,113.10
2019-01-18T00:28:33.764Z,121.60
2019-01-18T00:30:59.685Z,108.10
2019-01-18T00:33:25.676Z,102.20
2019-01-18T00:35:51.591Z,116.63
2019-01-18T00:38:17.568Z,107.50
2019-01-18T00:40:43.513Z,104.57
2019-01-18T00:43:09.545Z,113.37
2019-01-18T00:45:35.447Z,99.93
2019-01-18T00:48:01.401Z,109.83
2019-01-18T00:50:27.266Z,110.07
2019-01-18T00:52:53.146Z,107.20
2019-01-18T00:55:19.031Z,108.77
2019-01-18T00:57:45.021Z,107.47
2019-01-18T01:00:16.966Z,108.90
2019-01-18T01:02:42.852Z,110.40
2019-01-18T01:05:08.755Z,105.17
2019-01-18T01:07:34.629Z,107.37
2019-01-18T01:10:00.496Z,104.73
2019-01-18T01:12:26.367Z,109.90
2019-01-18T01:14:52.226Z,110.80
2019-01-18T01:17:18.093Z,111.17
2019-01-18T01:19:44.198Z,105.73
2019-01-18T01:22:11.590Z,110.70
2019-01-18T01:24:37.462Z,107.13
2019-01-18T01:27:03.338Z,108.90
2019-01-18T01:29:29.222Z,103.53
2019-01-18T01:31:55.211Z,99.33
2019-01-18T01:34:21.069Z,102.70
2019-01-18T01:36:46.959Z,112.37
2019-01-18T01:39:12.839Z,99.27
2019-01-18T01:41:38.695Z,104.97
2019-01-18T01:44:04.582Z,97.77
2019-01-18T01:46:30.563Z,101.67
2019-01-18T01:48:56.434Z,99.50
2019-01-18T01:51:22.326Z,99.27
2019-01-18T01:53:48.322Z,98.73
2019-01-18T01:56:14.293Z,92.50
2019-01-18T01:58:40.170Z,90.07
2019-01-18T02:01:06.069Z,91.83
2019-01-18T02:03:31.941Z,86.67
2019-01-18T02:05:57.815Z,93.53
2019-01-18T02:08:23.687Z,91.47
2019-01-18T02:10:49.591Z,91.37
2019-01-18T02:13:15.467Z,97.73
2019-01-18T02:15:41.336Z,98.53
2019-01-18T02:18:07.242Z,95.47
2019-01-18T02:20:33.226Z,100.13
2019-01-18T02:22:59.665Z,106.40
2019-01-18T02:25:25.531Z,103.53
2019-01-18T02:27:51.516Z,106.83
2019-01-18T02:30:24.215Z,101.10
2019-01-18T02:32:50.078Z,102.40
2019-01-18T02:35:16.012Z,106.67
2019-01-18T02:37:41.872Z,104.93
2019-01-18T02:40:09.839Z,102.73
2019-01-18T02:42:35.735Z,100.73
2019-01-18T02:45:02.710Z,112.10
2019-01-18T02:47:28.713Z,107.70
2019-01-18T02:49:54.640Z,116.80
2019-01-18T02:52:20.522Z,120.10
2019-01-18T02:54:46.444Z,111.37
2019-01-18T02:57:12.257Z,116.33
2019-01-18T02:59:38.134Z,113.03
2019-01-18T03:02:04.084Z,113.87
2019-01-18T03:04:29.976Z,119.30
2019-01-18T03:06:55.834Z,119.00
2019-01-18T03:09:21.729Z,118.03
2019-01-18T03:11:47.719Z,118.30
2019-01-18T03:14:13.594Z,116.70
2019-01-18T03:16:39.480Z,118.30
2019-01-18T03:19:05.396Z,120.67
2019-01-18T03:21:31.581Z,109.93
2019-01-18T03:23:57.841Z,120.53
2019-01-18T03:26:23.781Z,120.87
2019-01-18T03:28:49.734Z,126.03
2019-01-18T03:31:15.723Z,119.10
2019-01-18T03:33:41.600Z,130.10
2019-01-18T03:36:07.487Z,110.77
2019-01-18T03:38:33.359Z,122.30
2019-01-18T03:40:59.231Z,126.83
2019-01-18T03:43:25.132Z,134.73
2019-01-18T03:45:51.022Z,116.40
2019-01-18T03:48:16.866Z,132.13
2019-01-18T03:50:42.748Z,118.03
2019-01-18T03:53:08.618Z,112.57
2019-01-18T03:55:34.598Z,127.83
2019-01-18T03:58:00.495Z,126.03
2019-01-18T04:00:27.271Z,115.63
2019-01-18T04:02:53.268Z,121.10
2019-01-18T04:05:19.178Z,121.70
2019-01-18T04:07:45.085Z,130.00
2019-01-18T04:10:16.587Z,123.43
2019-01-18T04:12:42.472Z,113.33
2019-01-18T04:15:11.120Z,115.37
2019-01-18T04:17:37.018Z,113.03
2019-01-18T04:20:06.443Z,108.93
2019-01-18T04:22:32.822Z,105.83
2019-01-18T04:24:59.056Z,104.07
2019-01-18T04:27:25.042Z,109.73
2019-01-18T04:29:50.914Z,110.33
2019-01-18T04:32:16.791Z,97.13
2019-01-18T04:34:42.794Z,108.37
2019-01-18T04:37:08.642Z,98.20
2019-01-18T04:39:34.620Z,96.03
2019-01-18T04:42:00.482Z,94.60
2019-01-18T04:44:26.359Z,96.87
2019-01-18T04:46:52.238Z,100.77
2019-01-18T04:49:18.127Z,91.07
2019-01-18T04:51:43.979Z,94.47
2019-01-18T04:54:09.881Z,106.93
2019-01-18T04:56:35.791Z,102.27
2019-01-18T04:59:01.675Z,98.30
2019-01-18T05:01:27.538Z,95.30
2019-01-18T05:03:53.418Z,92.93
2019-01-18T05:06:19.282Z,91.37
2019-01-18T05:08:45.148Z,85.93
2019-01-18T05:11:11.079Z,93.57
2019-01-18T05:13:36.953Z,89.17
2019-01-18T05:16:04.728Z,85.83
2019-01-18T05:18:30.612Z,102.03
2019-01-18T05:20:56.515Z,87.67
2019-01-18T05:23:22.732Z,89.37
2019-01-18T05:25:48.857Z,86.87
2019-01-18T05:28:14.714Z,85.70
2019-01-18T05:30:47.295Z,88.63
2019-01-18T05:33:08.362Z,84.80
2019-01-18T05:35:34.236Z,102.90
2019-01-18T05:38:00.198Z,85.70
2019-01-18T05:40:26.056Z,92.97
2019-01-18T05:42:51.943Z,97.27
2019-01-18T05:45:19.621Z,89.03
2019-01-18T05:47:45.613Z,92.23
2019-01-18T05:50:19.254Z,84.87
2019-01-18T05:52:45.216Z,80.93
2019-01-18T05:55:11.322Z,80.77
2019-01-18T05:57:37.213Z,89.13
2019-01-18T06:00:06.997Z,91.67
2019-01-18T06:02:32.872Z,82.17
2019-01-18T06:04:59.458Z,83.00
2019-01-18T06:07:25.339Z,86.27
2019-01-18T06:09:51.224Z,91.37
2019-01-18T06:12:17.111Z,80.73
2019-01-18T06:14:42.968Z,90.13
2019-01-18T06:17:09.048Z,85.07
2019-01-18T06:19:34.925Z,86.43
2019-01-18T06:22:00.923Z,85.57
2019-01-18T06:24:26.928Z,86.50
2019-01-18T06:26:53.315Z,78.47
2019-01-18T06:29:19.217Z,82.83
2019-01-18T06:31:45.116Z,84.87
2019-01-18T06:34:11.001Z,84.90
2019-01-18T06:36:36.888Z,86.27
2019-01-18T06:39:04.782Z,92.30
2019-01-18T06:41:32.162Z,87.40
2019-01-18T06:43:58.075Z,90.40
2019-01-18T06:46:24.349Z,85.30
2019-01-18T06:48:50.819Z,83.00
2019-01-18T06:51:16.734Z,86.40
2019-01-18T06:53:42.633Z,84.50
2019-01-18T06:56:08.494Z,88.33
2019-01-18T06:58:34.442Z,86.87
2019-01-18T07:01:00.323Z,92.07
2019-01-18T07:03:26.246Z,92.63
2019-01-18T07:05:52.115Z,94.30
2019-01-18T07:08:18.009Z,98.97
2019-01-18T07:10:43.877Z,96.70
2019-01-18T07:13:09.835Z,105.53
2019-01-18T07:15:35.744Z,102.37
2019-01-18T07:18:01.634Z,91.10
2019-01-18T07:20:27.524Z,104.03
2019-01-18T07:22:53.408Z,99.33
2019-01-18T07:25:25.228Z,90.83
2019-01-18T07:27:52.186Z,88.50
2019-01-18T07:30:21.858Z,91.77
2019-01-18T07:32:47.732Z,83.73
2019-01-18T07:35:13.626Z,86.67
2019-01-18T07:37:39.502Z,86.07
2019-01-18T07:40:07.387Z,88.23
2019-01-18T07:42:33.646Z,88.17
2019-01-18T07:44:59.537Z,77.93
2019-01-18T07:47:25.747Z,82.37
2019-01-18T07:49:51.627Z,77.77
2019-01-18T07:52:17.511Z,79.23
2019-01-18T07:54:43.407Z,79.77
2019-01-18T07:57:09.295Z,84.33
2019-01-18T07:59:35.210Z,79.37
2019-01-18T08:02:01.124Z,79.37
2019-01-18T08:04:26.973Z,67.73
2019-01-18T08:06:52.885Z,69.70
2019-01-18T08:09:18.768Z,74.93
2019-01-18T08:11:44.733Z,65.77
2019-01-18T08:14:10.622Z,66.53
2019-01-18T08:16:36.481Z,65.57
2019-01-18T08:19:02.373Z,64.27
2019-01-18T08:21:28.268Z,69.83
2019-01-18T08:23:54.230Z,66.17
2019-01-18T08:26:20.538Z,65.67
2019-01-18T08:28:48.553Z,67.30
2019-01-18T08:31:14.606Z,66.97
2019-01-18T08:33:41.772Z,65.97
2019-01-18T08:36:07.661Z,65.53
2019-01-18T08:38:33.577Z,64.10
2019-01-18T08:40:59.449Z,63.20
2019-01-18T08:43:25.439Z,59.00
2019-01-18T08:45:51.343Z,57.27
2019-01-18T08:48:17.214Z,58.63
2019-01-18T08:50:43.099Z,59.07
2019-01-18T08:53:09.073Z,59.80
2019-01-18T08:55:34.977Z,58.23
2019-01-18T08:58:00.870Z,58.33
2019-01-18T09:00:31.003Z,58.43
2019-01-18T09:02:56.971Z,57.07
2019-01-18T09:05:24.792Z,57.53
2019-01-18T09:07:50.683Z,57.53
2019-01-18T09:10:19.573Z,58.93
2019-01-18T09:12:45.539Z,60.00
2019-01-18T09:15:12.413Z,61.03
2019-01-18T09:17:39.815Z,56.17
2019-01-18T09:20:15.502Z,55.50
2019-01-18T09:22:41.379Z,58.70
2019-01-18T09:25:07.252Z,59.50
2019-01-18T09:27:33.602Z,60.93
2019-01-18T09:30:00.472Z,59.73
2019-01-18T09:32:26.315Z,63.17
2019-01-18T09:34:52.348Z,64.20
2019-01-18T09:37:18.215Z,64.67
2019-01-18T09:39:45.439Z,61.50
2019-01-18T09:42:11.523Z,60.67
2019-01-18T09:44:37.410Z,59.80
2019-01-18T09:47:03.248Z,58.80
2019-01-18T09:49:29.286Z,56.00
2019-01-18T09:51:55.227Z,54.67
2019-01-18T09:54:21.188Z,56.30
2019-01-18T09:56:47.074Z,56.20
2019-01-18T09:59:12.940Z,58.30
2019-01-18T10:01:38.809Z,54.40
2019-01-18T10:04:04.715Z,56.77
2019-01-18T10:06:30.595Z,52.23
2019-01-18T10:08:56.456Z,56.53
2019-01-18T10:11:22.384Z,53.87
2019-01-18T10:13:48.290Z,54.90
2019-01-18T10:16:14.278Z,55.63
2019-01-18T10:18:40.152Z,55.50
2019-01-18T10:21:06.023Z,56.43
2019-01-18T10:23:31.999Z,58.50
2019-01-18T10:25:57.949Z,59.70
2019-01-18T10:28:24.510Z,56.57
2019-01-18T10:30:51.672Z,56.43
2019-01-18T10:33:17.533Z,57.57
2019-01-18T10:35:43.779Z,57.63
2019-01-18T10:38:09.647Z,59.93
2019-01-18T10:40:35.640Z,59.63
2019-01-18T10:43:01.579Z,61.33
2019-01-18T10:45:27.443Z,57.00
2019-01-18T10:47:53.292Z,61.87
2019-01-18T10:50:22.525Z,59.70
2019-01-18T10:52:48.370Z,57.83
2019-01-18T10:55:14.358Z,59.17
2019-01-18T10:57:40.326Z,58.13
2019-01-18T11:00:12.767Z,55.37
2019-01-18T11:02:38.612Z,59.50
2019-01-18T11:05:07.498Z,57.83
2019-01-18T11:07:33.397Z,56.37
2019-01-18T11:09:59.264Z,62.77
2019-01-18T11:12:25.173Z,56.77
2019-01-18T11:14:51.048Z,55.90
2019-01-18T11:17:16.955Z,55.37
2019-01-18T11:19:42.860Z,54.97
2019-01-18T11:22:08.756Z,55.90
2019-01-18T11:24:34.733Z,54.23
2019-01-18T11:27:00.612Z,57.63
2019-01-18T11:29:27.051Z,54.77
2019-01-18T11:31:54.053Z,55.70
2019-01-18T11:34:20.057Z,53.80
2019-01-18T11:36:46.017Z,56.50
2019-01-18T11:39:11.933Z,54.27
2019-01-18T11:41:37.825Z,54.03
2019-01-18T11:44:04.308Z,54.33
2019-01-18T11:46:30.203Z,55.30
2019-01-18T11:48:56.178Z,52.10
2019-01-18T11:51:22.084Z,51.67
2019-01-18T11:53:47.959Z,51.97
2019-01-18T11:56:13.829Z,51.33
2019-01-18T11:58:39.738Z,52.80
2019-01-18T12:01:05.679Z,49.27
2019-01-18T12:03:31.482Z,46.63
2019-01-18T12:05:57.377Z,42.73
2019-01-18T12:08:23.264Z,40.97
2019-01-18T12:10:49.145Z,32.43
2019-01-18T12:13:14.997Z,32.30
2019-01-18T12:15:40.883Z,28.80
2019-01-18T12:18:06.799Z,29.87
2019-01-18T12:20:33.364Z,31.33
2019-01-18T12:22:59.342Z,31.87
2019-01-18T12:25:25.225Z,32.47
2019-01-18T12:27:51.086Z,33.40
2019-01-18T12:30:27.484Z,38.27
2019-01-18T12:32:55.050Z,40.83
2019-01-18T12:35:20.948Z,38.23
2019-01-18T12:37:46.798Z,39.13
2019-01-18T12:40:12.792Z,40.53
2019-01-18T12:42:58.522Z,40.03
2019-01-18T12:45:24.393Z,36.63
2019-01-18T12:47:50.254Z,37.60
2019-01-18T12:50:25.705Z,32.67
2019-01-18T12:52:51.577Z,30.70
2019-01-18T12:55:17.457Z,28.73
2019-01-18T12:57:43.395Z,30.23
2019-01-18T13:00:18.619Z,30.87
2019-01-18T13:02:44.485Z,32.07
2019-01-18T13:05:15.778Z,31.87
2019-01-18T13:07:41.857Z,32.50
2019-01-18T13:10:12.286Z,33.70
2019-01-18T13:12:36.104Z,33.23
2019-01-18T13:15:08.263Z,33.57
2019-01-18T13:17:34.192Z,32.27
2019-01-18T13:20:00.095Z,33.27
2019-01-18T13:22:26.277Z,33.47
2019-01-18T13:24:52.154Z,35.40
2019-01-18T13:27:18.000Z,34.67
2019-01-18T13:29:43.851Z,37.47
2019-01-18T13:32:09.842Z,36.43
2019-01-18T13:34:36.631Z,35.73
2019-01-18T13:37:02.704Z,34.67
2019-01-18T13:39:28.596Z,34.97
2019-01-18T13:41:54.484Z,32.53
2019-01-18T13:44:21.340Z,32.20
2019-01-18T13:46:47.229Z,30.97
2019-01-18T13:49:13.188Z,28.50
2019-01-18T13:51:39.111Z,26.27
2019-01-18T13:54:04.997Z,23.20
2019-01-18T13:56:30.862Z,23.23
2019-01-18T13:58:56.765Z,21.13
2019-01-18T14:01:22.613Z,19.47
2019-01-18T14:03:48.472Z,19.23
2019-01-18T14:06:14.361Z,18.20
2019-01-18T14:08:42.231Z,18.13
2019-01-18T14:11:08.060Z,17.67
2019-01-18T14:13:37.416Z,16.33
2019-01-18T14:16:01.712Z,16.20
2019-01-18T14:18:27.586Z,16.53
2019-01-18T14:20:53.500Z,16.70
2019-01-18T14:23:19.344Z,16.13
2019-01-18T14:25:45.207Z,15.23
2019-01-18T14:28:11.259Z,16.43
2019-01-18T14:30:37.149Z,15.90
2019-01-18T14:33:03.150Z,16.00
2019-01-18T14:35:29.933Z,15.00
2019-01-18T14:37:55.839Z,14.47
2019-01-18T14:40:21.699Z,15.23
2019-01-18T14:42:49.870Z,14.80
2019-01-18T14:45:19.436Z,14.37
2019-01-18T14:47:45.410Z,14.97
2019-01-18T14:50:15.169Z,15.43
2019-01-18T14:52:41.086Z,14.77
2019-01-18T14:55:06.973Z,14.53
2019-01-18T14:57:32.831Z,14.80
2019-01-18T14:59:58.754Z,13.90
2019-01-18T15:02:24.598Z,15.33
2019-01-18T15:04:50.468Z,14.67
2019-01-18T15:07:16.323Z,14.60
2019-01-18T15:09:42.204Z,15.40
2019-01-18T15:12:08.088Z,14.30
2019-01-18T15:14:33.972Z,12.80
2019-01-18T15:16:59.873Z,13.23
2019-01-18T15:19:25.733Z,11.90
2019-01-18T15:21:51.607Z,11.80
2019-01-18T15:24:17.487Z,10.53
2019-01-18T15:26:43.372Z,10.27
2019-01-18T15:29:09.239Z,11.00
2019-01-18T15:31:35.121Z,10.30
2019-01-18T15:34:01.092Z,10.17
2019-01-18T15:36:27.382Z,11.20
2019-01-18T15:38:53.239Z,10.80
2019-01-18T15:41:19.148Z,10.63
2019-01-18T15:43:45.217Z,11.73
2019-01-18T15:46:11.088Z,10.20
2019-01-18T15:48:37.428Z,8.60
2019-01-18T15:51:03.287Z,8.53
2019-01-18T15:53:29.187Z,7.20
2019-01-18T15:55:55.067Z,7.73
2019-01-18T15:58:20.943Z,6.47
2019-01-18T16:00:46.842Z,6.10
2019-01-18T16:03:16.015Z,5.40
2019-01-18T16:05:40.494Z,4.37
2019-01-18T16:08:06.465Z,4.60
2019-01-18T16:10:32.952Z,4.30
2019-01-18T16:12:58.865Z,3.97
2019-01-18T16:15:31.740Z,3.70
2019-01-18T16:17:57.583Z,3.37
2019-01-18T16:20:23.856Z,3.10
2019-01-18T16:22:49.847Z,3.20
2019-01-18T16:25:21.565Z,2.80
2019-01-18T16:27:47.590Z,3.40
2019-01-18T16:30:15.902Z,3.40
2019-01-18T16:32:41.750Z,3.03
2019-01-18T16:35:10.481Z,3.20
2019-01-18T16:37:37.225Z,3.60
2019-01-18T16:40:06.898Z,4.03
2019-01-18T16:42:33.240Z,3.97
2019-01-18T16:44:59.124Z,3.50
2019-01-18T16:47:25.014Z,3.97
2019-01-18T16:49:50.872Z,3.67
2019-01-18T16:52:16.767Z,3.93
2019-01-18T16:54:42.609Z,3.67
2019-01-18T16:57:08.496Z,3.80
2019-01-18T16:59:34.795Z,3.60
2019-01-18T17:02:00.682Z,3.40
2019-01-18T17:04:26.545Z,3.97
2019-01-18T17:06:52.425Z,3.40
2019-01-18T17:09:18.292Z,3.30
2019-01-18T17:11:44.179Z,3.47
2019-01-18T17:14:10.135Z,4.20
2019-01-18T17:16:36.031Z,3.23
2019-01-18T17:19:01.926Z,3.40
2019-01-18T17:21:27.807Z,3.10
2019-01-18T17:23:53.663Z,3.10
2019-01-18T17:26:19.536Z,3.50
2019-01-18T17:28:45.403Z,3.40
2019-01-18T17:31:11.292Z,3.50
2019-01-18T17:33:38.560Z,3.70
2019-01-18T17:36:16.557Z,3.63
2019-01-18T17:38:47.491Z,3.80
2019-01-18T17:41:41.470Z,3.90
2019-01-18T17:44:31.269Z,3.87
2019-01-18T17:47:34.521Z,3.70
2019-01-18T17:50:30.357Z,3.70
2019-01-18T17:53:30.678Z,3.70
2019-01-18T17:56:03.220Z,4.13
2019-01-18T17:58:53.959Z,4.13
2019-01-18T18:01:23.665Z,3.80
2019-01-18T18:03:59.160Z,4.10
2019-01-18T18:06:45.582Z,4.10
2019-01-18T18:09:18.256Z,3.87
2019-01-18T18:12:02.872Z,4.00
2019-01-18T18:14:42.261Z,4.20
2019-01-18T18:17:14.714Z,3.70
2019-01-18T18:19:53.207Z,4.00
2019-01-18T18:22:34.637Z,3.87
2019-01-18T18:25:39.558Z,4.13
2019-01-18T18:28:44.220Z,4.37
2019-01-18T18:31:16.894Z,5.00
2019-01-18T18:34:12.568Z,4.80
2019-01-18T18:36:55.116Z,4.60
2019-01-18T18:39:28.535Z,5.30
2019-01-18T18:42:14.742Z,5.27
2019-01-18T18:44:44.418Z,5.60
2019-01-18T18:47:17.046Z,5.60
2019-01-18T18:49:52.950Z,5.03
2019-01-18T18:52:29.527Z,5.80
2019-01-18T18:55:14.427Z,13.97
2019-01-18T18:58:04.791Z,18.63
2019-01-18T19:00:49.934Z,5.60
2019-01-18T19:03:19.611Z,5.47
2019-01-18T19:06:10.228Z,5.40
2019-01-18T19:08:57.556Z,5.83
2019-01-18T19:11:33.195Z,5.80
2019-01-18T19:14:14.996Z,8.50
2019-01-18T19:17:08.408Z,9.33
2019-01-18T19:20:05.743Z,9.83
2019-01-18T19:22:59.225Z,8.77
2019-01-18T19:25:34.846Z,9.00
2019-01-18T19:28:22.924Z,9.20
2019-01-18T19:31:01.701Z,9.87
2019-01-18T19:33:34.424Z,9.67
2019-01-18T19:36:13.272Z,9.50
2019-01-18T19:38:58.413Z,11.47
2019-01-18T19:41:34.760Z,12.03
2019-01-18T19:44:04.451Z,11.33
2019-01-18T19:46:49.206Z,12.57
2019-01-18T19:49:38.900Z,12.70
2019-01-18T19:52:09.469Z,13.23
2019-01-18T19:54:51.436Z,13.63
2019-01-18T19:57:36.297Z,14.57
2019-01-18T20:00:22.887Z,15.57
2019-01-18T20:02:55.295Z,14.97
2019-01-18T20:05:37.214Z,15.43
2019-01-18T20:08:15.784Z,14.87
2019-01-18T20:10:57.741Z,14.17
2019-01-18T20:13:36.013Z,13.30
2019-01-18T20:16:25.423Z,13.63
2019-01-18T20:19:13.626Z,13.27
2019-01-18T20:21:52.484Z,13.60
2019-01-18T20:24:40.583Z,12.87
2019-01-18T20:27:25.678Z,10.87
2019-01-18T20:30:04.187Z,11.03
2019-01-18T20:32:51.553Z,10.50
2019-01-18T20:35:33.431Z,9.67
2019-01-18T20:38:23.646Z,10.30
2019-01-18T20:40:54.295Z,10.70
2019-01-18T20:43:27.848Z,10.97
2019-01-18T20:46:26.423Z,10.67
2019-01-18T20:49:15.992Z,10.57
2019-01-18T20:51:45.689Z,10.60
2019-01-18T20:54:32.211Z,12.30
2019-01-18T20:57:01.901Z,12.40
2019-01-18T20:59:37.571Z,13.67
2019-01-18T21:02:13.435Z,12.10
2019-01-18T21:04:55.203Z,15.03
2019-01-18T21:07:41.762Z,16.93
2019-01-18T21:10:26.006Z,16.17
2019-01-18T21:13:16.336Z,15.70
2019-01-18T21:16:07.179Z,15.47
2019-01-18T21:18:51.920Z,14.67
2019-01-18T21:21:43.960Z,15.17
2019-01-18T21:24:28.811Z,15.90
2019-01-18T21:26:58.630Z,16.60
2019-01-18T21:29:34.545Z,17.10
2019-01-18T21:32:19.616Z,19.57
2019-01-18T21:34:49.326Z,20.77
2019-01-18T21:37:35.578Z,20.47
2019-01-18T21:40:23.774Z,20.87
2019-01-18T21:43:16.583Z,23.07
2019-01-18T21:45:55.958Z,23.30
2019-01-18T21:48:28.146Z,21.43
2019-01-18T21:51:02.380Z,21.00
2019-01-18T21:53:41.324Z,21.13
2019-01-18T21:56:35.672Z,21.70
2019-01-18T21:59:25.009Z,19.70
2019-01-18T22:02:00.749Z,17.47
2019-01-18T22:04:31.071Z,16.77
2019-01-18T22:07:06.746Z,17.07
2019-01-18T22:09:39.661Z,18.53
2019-01-18T22:12:15.362Z,19.77
2019-01-18T22:15:10.983Z,18.50
2019-01-18T22:17:47.006Z,20.87
2019-01-18T22:20:34.440Z,20.77
2019-01-18T22:23:13.323Z,20.63
2019-01-18T22:25:45.831Z,21.47
2019-01-18T22:28:43.225Z,20.30
2019-01-18T22:31:31.305Z,20.40
2019-01-18T22:34:04.078Z,20.67
2019-01-18T22:36:42.835Z,21.63
2019-01-18T22:39:33.299Z,21.37
2019-01-18T22:42:19.332Z,20.43
2019-01-18T22:44:49.689Z,20.07
2019-01-18T22:47:25.707Z,19.47
2019-01-18T22:49:55.409Z,18.10
2019-01-18T22:52:31.226Z,18.23
2019-01-18T22:55:17.156Z,17.87
2019-01-18T22:57:46.891Z,16.97
2019-01-18T23:00:55.477Z,17.57
2019-01-18T23:03:27.886Z,18.13
2019-01-18T23:06:14.509Z,18.20
2019-01-18T23:09:08.499Z,18.23
2019-01-18T23:11:47.295Z,19.73
2019-01-18T23:14:33.590Z,19.63
2019-01-18T23:17:15.768Z,20.57
2019-01-18T23:19:48.233Z,20.87
2019-01-18T23:22:26.598Z,20.60
2019-01-18T23:24:59.005Z,21.60
2019-01-18T23:27:31.318Z,23.70
2019-01-18T23:30:10.004Z,24.23
2019-01-18T23:33:15.879Z,24.10
2019-01-18T23:35:51.060Z,22.80
2019-01-18T23:38:52.377Z,22.40
2019-01-18T23:41:27.836Z,22.80
2019-01-18T23:44:00.321Z,20.07
2019-01-18T23:46:40.336Z,19.93
2019-01-18T23:49:16.444Z,19.90
2019-01-18T23:51:52.201Z,19.60
2019-01-18T23:54:24.657Z,20.23
2019-01-18T23:57:10.696Z,19.50
2019-01-18T23:59:46.642Z,20.70
